sensor_id;sensor_type;location;lat;lon;timestamp;P1;durP1;ratioP1;P2;durP2;ratioP2
17866;SDS011;9059;49.934;8.650;2023-08-31T00:06:43;2.83;;;1.25;;
17866;SDS011;9059;49.934;8.650;2023-08-31T00:16:48;3.25;;;1.40;;
17866;SDS011;9059;49.934;8.650;2023-08-31T00:26:52;6.32;;;1.30;;
17866;SDS011;9059;49.934;8.650;2023-08-31T00:36:55;3.00;;;1.40;;
17866;SDS011;9059;49.934;8.650;2023-08-31T00:47:01;2.85;;;1.30;;
17866;SDS011;9059;49.934;8.650;2023-08-31T00:57:05;2.47;;;1.35;;
17866;SDS011;9059;49.934;8.650;2023-08-31T01:07:11;5.65;;;1.40;;
17866;SDS011;9059;49.934;8.650;2023-08-31T01:17:18;1.92;;;1.35;;
17866;SDS011;9059;49.934;8.650;2023-08-31T01:27:24;3.80;;;1.58;;
17866;SDS011;9059;49.934;8.650;2023-08-31T01:37:29;3.20;;;1.70;;
17866;SDS011;9059;49.934;8.650;2023-08-31T01:47:37;4.47;;;2.22;;
17866;SDS011;9059;49.934;8.650;2023-08-31T01:57:39;3.72;;;1.70;;
17866;SDS011;9059;49.934;8.650;2023-08-31T02:07:44;4.40;;;2.03;;
17866;SDS011;9059;49.934;8.650;2023-08-31T02:17:47;2.83;;;1.52;;
17866;SDS011;9059;49.934;8.650;2023-08-31T02:27:51;3.72;;;1.73;;
17866;SDS011;9059;49.934;8.650;2023-08-31T02:37:54;3.90;;;1.77;;
17866;SDS011;9059;49.934;8.650;2023-08-31T02:47:58;3.75;;;1.77;;
17866;SDS011;9059;49.934;8.650;2023-08-31T02:58:01;4.88;;;2.17;;
17866;SDS011;9059;49.934;8.650;2023-08-31T03:08:05;5.53;;;1.70;;
17866;SDS011;9059;49.934;8.650;2023-08-31T03:18:08;3.05;;;1.52;;
17866;SDS011;9059;49.934;8.650;2023-08-31T03:28:13;3.03;;;1.60;;
17866;SDS011;9059;49.934;8.650;2023-08-31T03:38:15;11.07;;;2.70;;
17866;SDS011;9059;49.934;8.650;2023-08-31T03:48:20;9.60;;;2.70;;
17866;SDS011;9059;49.934;8.650;2023-08-31T03:58:23;6.10;;;2.80;;
17866;SDS011;9059;49.934;8.650;2023-08-31T04:08:27;6.95;;;3.42;;
17866;SDS011;9059;49.934;8.650;2023-08-31T04:18:30;8.50;;;3.77;;
17866;SDS011;9059;49.934;8.650;2023-08-31T04:28:35;8.98;;;3.53;;
17866;SDS011;9059;49.934;8.650;2023-08-31T04:38:38;8.27;;;3.60;;
17866;SDS011;9059;49.934;8.650;2023-08-31T04:48:43;7.00;;;3.33;;
17866;SDS011;9059;49.934;8.650;2023-08-31T04:58:46;6.20;;;2.75;;
17866;SDS011;9059;49.934;8.650;2023-08-31T05:08:51;5.85;;;2.42;;
17866;SDS011;9059;49.934;8.650;2023-08-31T05:18:55;6.78;;;2.63;;
17866;SDS011;9059;49.934;8.650;2023-08-31T05:28:59;4.38;;;2.08;;
17866;SDS011;9059;49.934;8.650;2023-08-31T05:39:02;3.58;;;1.98;;
17866;SDS011;9059;49.934;8.650;2023-08-31T05:49:07;5.55;;;2.17;;
17866;SDS011;9059;49.934;8.650;2023-08-31T05:59:10;20.20;;;2.90;;
17866;SDS011;9059;49.934;8.650;2023-08-31T06:09:14;6.55;;;2.17;;
17866;SDS011;9059;49.934;8.650;2023-08-31T06:19:17;7.68;;;1.77;;
17866;SDS011;9059;49.934;8.650;2023-08-31T06:29:22;3.88;;;1.92;;
17866;SDS011;9059;49.934;8.650;2023-08-31T06:39:25;5.05;;;1.95;;
17866;SDS011;9059;49.934;8.650;2023-08-31T06:49:29;3.95;;;1.45;;
17866;SDS011;9059;49.934;8.650;2023-08-31T06:59:34;8.57;;;2.30;;
17866;SDS011;9059;49.934;8.650;2023-08-31T07:09:38;3.38;;;1.70;;
17866;SDS011;9059;49.934;8.650;2023-08-31T07:19:41;3.22;;;1.50;;
17866;SDS011;9059;49.934;8.650;2023-08-31T07:29:45;6.43;;;1.77;;
17866;SDS011;9059;49.934;8.650;2023-08-31T07:39:48;4.60;;;1.23;;
17866;SDS011;9059;49.934;8.650;2023-08-31T07:49:53;3.63;;;1.30;;
17866;SDS011;9059;49.934;8.650;2023-08-31T07:59:56;6.15;;;1.27;;
17866;SDS011;9059;49.934;8.650;2023-08-31T08:10:00;3.13;;;1.05;;
17866;SDS011;9059;49.934;8.650;2023-08-31T08:20:04;4.25;;;1.38;;
17866;SDS011;9059;49.934;8.650;2023-08-31T08:30:10;2.97;;;1.23;;
17866;SDS011;9059;49.934;8.650;2023-08-31T08:40:13;6.65;;;1.10;;
17866;SDS011;9059;49.934;8.650;2023-08-31T08:50:17;5.25;;;1.15;;
17866;SDS011;9059;49.934;8.650;2023-08-31T09:00:20;3.05;;;0.90;;
17866;SDS011;9059;49.934;8.650;2023-08-31T09:10:24;6.50;;;1.33;;
17866;SDS011;9059;49.934;8.650;2023-08-31T09:20:42;3.05;;;0.88;;
17866;SDS011;9059;49.934;8.650;2023-08-31T09:30:48;3.60;;;0.73;;
17866;SDS011;9059;49.934;8.650;2023-08-31T09:40:52;3.60;;;0.70;;
17866;SDS011;9059;49.934;8.650;2023-08-31T09:50:57;3.35;;;0.95;;
17866;SDS011;9059;49.934;8.650;2023-08-31T10:01:00;3.67;;;0.93;;
17866;SDS011;9059;49.934;8.650;2023-08-31T10:11:12;4.18;;;1.08;;
17866;SDS011;9059;49.934;8.650;2023-08-31T10:21:16;2.72;;;0.90;;
17866;SDS011;9059;49.934;8.650;2023-08-31T10:31:21;2.08;;;0.80;;
17866;SDS011;9059;49.934;8.650;2023-08-31T10:41:24;1.38;;;0.65;;
17866;SDS011;9059;49.934;8.650;2023-08-31T10:51:29;3.22;;;0.85;;
17866;SDS011;9059;49.934;8.650;2023-08-31T11:01:51;3.95;;;0.80;;
17866;SDS011;9059;49.934;8.650;2023-08-31T11:11:57;7.20;;;1.00;;
17866;SDS011;9059;49.934;8.650;2023-08-31T11:22:00;3.05;;;0.95;;
17866;SDS011;9059;49.934;8.650;2023-08-31T11:32:06;6.45;;;0.70;;
17866;SDS011;9059;49.934;8.650;2023-08-31T11:42:09;2.05;;;0.70;;
17866;SDS011;9059;49.934;8.650;2023-08-31T11:52:13;2.58;;;0.73;;
17866;SDS011;9059;49.934;8.650;2023-08-31T12:02:16;1.60;;;0.70;;
17866;SDS011;9059;49.934;8.650;2023-08-31T12:12:23;2.05;;;0.70;;
17866;SDS011;9059;49.934;8.650;2023-08-31T12:22:26;2.00;;;0.80;;
17866;SDS011;9059;49.934;8.650;2023-08-31T12:32:30;2.00;;;0.70;;
17866;SDS011;9059;49.934;8.650;2023-08-31T12:42:33;3.72;;;1.00;;
17866;SDS011;9059;49.934;8.650;2023-08-31T12:52:37;2.78;;;0.90;;
17866;SDS011;9059;49.934;8.650;2023-08-31T13:02:45;2.90;;;0.98;;
17866;SDS011;9059;49.934;8.650;2023-08-31T13:12:50;6.22;;;1.17;;
17866;SDS011;9059;49.934;8.650;2023-08-31T13:22:52;3.75;;;1.00;;
17866;SDS011;9059;49.934;8.650;2023-08-31T13:32:57;2.03;;;1.20;;
17866;SDS011;9059;49.934;8.650;2023-08-31T13:43:00;2.92;;;1.00;;
17866;SDS011;9059;49.934;8.650;2023-08-31T13:53:06;4.25;;;1.10;;
17866;SDS011;9059;49.934;8.650;2023-08-31T14:03:08;3.80;;;0.95;;
17866;SDS011;9059;49.934;8.650;2023-08-31T14:13:13;4.82;;;1.20;;
17866;SDS011;9059;49.934;8.650;2023-08-31T14:23:16;4.70;;;1.20;;
17866;SDS011;9059;49.934;8.650;2023-08-31T14:33:20;4.60;;;0.90;;
17866;SDS011;9059;49.934;8.650;2023-08-31T14:43:22;3.83;;;1.20;;
17866;SDS011;9059;49.934;8.650;2023-08-31T14:53:28;4.55;;;1.13;;
17866;SDS011;9059;49.934;8.650;2023-08-31T15:03:31;3.10;;;1.15;;
17866;SDS011;9059;49.934;8.650;2023-08-31T15:13:35;7.25;;;1.30;;
17866;SDS011;9059;49.934;8.650;2023-08-31T15:23:38;8.07;;;1.17;;
17866;SDS011;9059;49.934;8.650;2023-08-31T15:33:42;3.10;;;1.30;;
17866;SDS011;9059;49.934;8.650;2023-08-31T15:43:45;5.53;;;1.35;;
17866;SDS011;9059;49.934;8.650;2023-08-31T15:53:50;3.20;;;1.08;;
17866;SDS011;9059;49.934;8.650;2023-08-31T16:03:52;4.55;;;1.17;;
17866;SDS011;9059;49.934;8.650;2023-08-31T16:13:57;2.17;;;0.98;;
17866;SDS011;9059;49.934;8.650;2023-08-31T16:24:01;2.47;;;1.10;;
17866;SDS011;9059;49.934;8.650;2023-08-31T16:34:05;5.75;;;1.20;;
17866;SDS011;9059;49.934;8.650;2023-08-31T16:44:08;5.63;;;1.27;;
17866;SDS011;9059;49.934;8.650;2023-08-31T16:54:13;4.22;;;1.10;;
17866;SDS011;9059;49.934;8.650;2023-08-31T17:04:16;4.63;;;1.40;;
17866;SDS011;9059;49.934;8.650;2023-08-31T17:14:20;4.50;;;1.30;;
17866;SDS011;9059;49.934;8.650;2023-08-31T17:24:23;5.30;;;1.38;;
17866;SDS011;9059;49.934;8.650;2023-08-31T17:34:28;2.65;;;1.08;;
17866;SDS011;9059;49.934;8.650;2023-08-31T17:44:30;3.92;;;1.20;;
17866;SDS011;9059;49.934;8.650;2023-08-31T17:54:35;4.50;;;0.98;;
17866;SDS011;9059;49.934;8.650;2023-08-31T18:04:38;4.35;;;1.30;;
17866;SDS011;9059;49.934;8.650;2023-08-31T18:14:43;2.58;;;1.20;;
17866;SDS011;9059;49.934;8.650;2023-08-31T18:24:47;3.28;;;1.17;;
17866;SDS011;9059;49.934;8.650;2023-08-31T18:34:51;5.82;;;1.42;;
17866;SDS011;9059;49.934;8.650;2023-08-31T18:44:55;7.38;;;1.33;;
17866;SDS011;9059;49.934;8.650;2023-08-31T18:55:04;7.68;;;1.27;;
17866;SDS011;9059;49.934;8.650;2023-08-31T19:05:08;8.60;;;1.13;;
17866;SDS011;9059;49.934;8.650;2023-08-31T19:15:13;2.20;;;0.90;;
17866;SDS011;9059;49.934;8.650;2023-08-31T19:25:16;5.65;;;1.70;;
17866;SDS011;9059;49.934;8.650;2023-08-31T19:35:21;3.80;;;1.27;;
17866;SDS011;9059;49.934;8.650;2023-08-31T19:45:44;4.53;;;1.20;;
17866;SDS011;9059;49.934;8.650;2023-08-31T19:55:49;4.72;;;1.27;;
17866;SDS011;9059;49.934;8.650;2023-08-31T20:05:52;4.65;;;1.13;;
17866;SDS011;9059;49.934;8.650;2023-08-31T20:15:59;5.50;;;1.60;;
17866;SDS011;9059;49.934;8.650;2023-08-31T20:26:06;8.45;;;1.50;;
17866;SDS011;9059;49.934;8.650;2023-08-31T20:36:11;5.97;;;1.42;;
17866;SDS011;9059;49.934;8.650;2023-08-31T20:46:14;5.50;;;1.38;;
17866;SDS011;9059;49.934;8.650;2023-08-31T20:56:19;4.25;;;1.33;;
17866;SDS011;9059;49.934;8.650;2023-08-31T21:06:22;3.50;;;1.30;;
17866;SDS011;9059;49.934;8.650;2023-08-31T21:16:27;7.22;;;1.65;;
17866;SDS011;9059;49.934;8.650;2023-08-31T21:26:33;2.30;;;1.40;;
17866;SDS011;9059;49.934;8.650;2023-08-31T21:36:40;5.30;;;2.05;;
17866;SDS011;9059;49.934;8.650;2023-08-31T21:46:43;4.80;;;1.85;;
17866;SDS011;9059;49.934;8.650;2023-08-31T21:56:47;5.03;;;1.70;;
17866;SDS011;9059;49.934;8.650;2023-08-31T22:06:50;6.18;;;1.90;;
17866;SDS011;9059;49.934;8.650;2023-08-31T22:16:54;4.85;;;1.40;;
17866;SDS011;9059;49.934;8.650;2023-08-31T22:27:00;3.90;;;1.60;;
17866;SDS011;9059;49.934;8.650;2023-08-31T22:37:05;3.20;;;1.60;;
17866;SDS011;9059;49.934;8.650;2023-08-31T22:47:08;4.88;;;1.50;;
17866;SDS011;9059;49.934;8.650;2023-08-31T22:57:12;4.40;;;1.55;;
17866;SDS011;9059;49.934;8.650;2023-08-31T23:07:15;6.25;;;1.70;;
17866;SDS011;9059;49.934;8.650;2023-08-31T23:17:19;5.28;;;1.73;;
17866;SDS011;9059;49.934;8.650;2023-08-31T23:27:22;4.20;;;1.60;;
17866;SDS011;9059;49.934;8.650;2023-08-31T23:37:32;3.55;;;1.40;;
17866;SDS011;9059;49.934;8.650;2023-08-31T23:47:35;8.57;;;1.73;;
17866;SDS011;9059;49.934;8.650;2023-08-31T23:57:39;5.93;;;1.90;;
